Time;durP1;ratioP1;P1;durP2;ratioP2;P2;SDS_P1;SDS_P2;PMS_P1;PMS_P2;Temp;Humidity;BMP_temperature;BMP_pressure;BME280_temperature;BME280_humidity;BME280_pressure;Samples;Min_cycle;Max_cycle;Signal;HPM_P1;HPM_P2
2023/01/12 00:01:33;;;;;;;7.80;4.90;;;;;;;4.50;83.87;94993.22;5012086;28;20714;-76
2023/01/12 00:03:58;;;;;;;8.63;5.35;;;;;;;4.53;84.00;94997.28;5011121;28;20415;-76
2023/01/12 00:06:25;;;;;;;8.10;5.17;;;;;;;4.57;83.88;94998.59;5010921;28;20183;-76
2023/01/12 00:08:51;;;;;;;10.17;5.27;;;;;;;4.66;83.77;95008.00;5012015;28;20636;-76
2023/01/12 00:11:18;;;;;;;7.35;4.85;;;;;;;4.66;83.62;95010.59;5022486;28;20419;-76
2023/01/12 00:13:44;;;;;;;7.40;4.78;;;;;;;4.69;83.59;95012.03;5031643;28;20078;-77
2023/01/12 00:16:33;;;;;;;9.97;5.40;;;;;;;4.68;83.38;95010.41;5031651;28;20184;-77
2023/01/12 00:19:16;;;;;;;11.50;6.38;;;;;;;4.60;83.93;95007.84;5030282;28;20539;-76
2023/01/12 00:24:34;;;;;;;9.50;6.30;;;;;;;4.59;84.50;95012.25;5030025;28;20810;-76
2023/01/12 00:27:03;;;;;;;9.97;6.13;;;;;;;4.67;84.08;95014.81;5030238;28;20237;-77
2023/01/12 00:29:28;;;;;;;10.23;5.53;;;;;;;4.70;83.17;95024.09;5031429;28;20241;-77
2023/01/12 00:31:55;;;;;;;8.90;5.27;;;;;;;4.69;83.22;95023.28;5017512;28;20200;-77
2023/01/12 00:34:22;;;;;;;10.00;4.60;;;;;;;4.52;83.94;95004.28;5011608;28;20249;-77
2023/01/12 00:36:48;;;;;;;6.97;4.63;;;;;;;4.52;83.81;95013.91;5022257;28;20682;-77
2023/01/12 00:39:13;;;;;;;7.18;4.80;;;;;;;4.43;84.06;95033.16;5016389;28;20462;-76
2023/01/12 00:47:10;;;;;;;8.70;4.77;;;;;;;4.52;84.01;95024.31;5004575;28;20191;-76
2023/01/12 00:49:36;;;;;;;7.97;4.80;;;;;;;4.56;83.95;95023.03;5011267;28;20243;-76
2023/01/12 00:52:03;;;;;;;7.33;5.03;;;;;;;4.45;84.17;95005.97;5011484;28;20227;-77
2023/01/12 00:54:28;;;;;;;7.20;4.10;;;;;;;4.59;83.80;95019.25;5016268;28;20245;-76
2023/01/12 00:56:53;;;;;;;6.43;4.00;;;;;;;4.53;83.43;95020.75;5013370;28;20622;-76
2023/01/12 00:59:19;;;;;;;7.33;4.77;;;;;;;4.30;83.94;94983.38;5010420;28;20457;-76
2023/01/12 01:01:44;;;;;;;8.43;4.50;;;;;;;4.57;83.97;95014.22;5011062;28;20277;-76
2023/01/12 01:04:10;;;;;;;6.67;4.47;;;;;;;4.55;83.86;95016.19;5011169;28;20188;-77
2023/01/12 01:06:39;;;;;;;8.63;5.00;;;;;;;4.47;84.09;95004.00;5009338;28;20414;-76
2023/01/12 01:09:05;;;;;;;8.90;5.65;;;;;;;4.58;84.11;95026.28;5028531;28;20497;-76
2023/01/12 01:11:31;;;;;;;7.80;4.97;;;;;;;4.59;83.95;95027.88;5029488;28;20691;-76
2023/01/12 01:13:57;;;;;;;8.25;4.55;;;;;;;4.43;83.82;95013.13;5030654;28;20332;-76
2023/01/12 01:16:23;;;;;;;7.73;4.77;;;;;;;4.53;84.04;95021.56;5029486;28;20263;-76
2023/01/12 01:18:48;;;;;;;11.40;6.40;;;;;;;4.55;84.28;95026.59;5029552;28;20421;-76
2023/01/12 01:21:13;;;;;;;6.27;3.87;;;;;;;4.37;84.09;94979.13;5029504;28;20179;-76
2023/01/12 01:23:41;;;;;;;6.20;4.53;;;;;;;4.60;84.05;95026.91;5029451;28;20911;-76
2023/01/12 01:26:09;;;;;;;6.60;4.67;;;;;;;4.48;84.33;95005.63;5029737;28;20874;-76
2023/01/12 01:28:35;;;;;;;5.03;3.57;;;;;;;4.40;84.05;94999.63;5003179;28;20183;-76
2023/01/12 01:31:07;;;;;;;5.03;3.60;;;;;;;4.57;84.43;95024.66;5010966;28;20718;-76
2023/01/12 01:33:33;;;;;;;5.80;4.17;;;;;;;4.58;84.20;95022.84;5010628;28;20188;-76
2023/01/12 01:35:58;;;;;;;8.03;4.47;;;;;;;4.59;83.98;95027.06;5010806;28;20184;-76
2023/01/12 01:38:24;;;;;;;5.97;3.90;;;;;;;4.46;84.15;95017.19;5010703;28;20185;-76
2023/01/12 01:40:49;;;;;;;6.93;4.63;;;;;;;4.55;84.30;95035.25;5010796;28;20780;-76
2023/01/12 01:43:17;;;;;;;5.63;4.13;;;;;;;4.56;84.31;95028.22;5010765;28;20172;-76
2023/01/12 01:45:49;;;;;;;7.83;4.70;;;;;;;4.53;84.58;95039.00;5028843;28;20182;-76
2023/01/12 01:48:16;;;;;;;6.97;4.23;;;;;;;4.36;84.36;95016.59;5029453;28;20184;-76
2023/01/12 01:50:48;;;;;;;6.95;4.93;;;;;;;4.49;84.68;95043.75;5029241;28;20444;-76
2023/01/12 01:53:21;;;;;;;5.73;4.30;;;;;;;4.51;84.66;95033.13;5029315;28;20196;-76
2023/01/12 01:55:51;;;;;;;8.48;4.90;;;;;;;4.58;84.69;95039.31;5030206;28;20482;-76
2023/01/12 01:58:56;;;;;;;6.50;4.90;;;;;;;4.42;84.45;95013.28;5034318;28;20197;-76
2023/01/12 02:01:21;;;;;;;8.10;4.67;;;;;;;4.58;84.10;95041.91;5032744;28;20227;-76
2023/01/12 02:03:47;;;;;;;8.82;5.80;;;;;;;4.32;84.21;95015.31;5032678;28;20435;-76
2023/01/12 02:06:13;;;;;;;10.60;6.03;;;;;;;4.52;84.72;95042.56;5034260;28;20267;-76
2023/01/12 02:08:50;;;;;;;7.80;4.50;;;;;;;4.46;84.75;95044.06;5029090;28;20193;-76
2023/01/12 02:16:58;;;;;;;9.07;5.88;;;;;;;4.44;84.50;95040.81;5013381;28;20569;-77
2023/01/12 02:19:23;;;;;;;7.60;4.53;;;;;;;4.46;84.71;95036.25;5011141;28;20180;-77
2023/01/12 02:22:15;;;;;;;6.53;4.13;;;;;;;4.47;84.58;95037.06;5034187;28;20180;-77
2023/01/12 02:25:01;;;;;;;7.27;4.40;;;;;;;4.50;84.51;95037.53;5011474;28;20191;-77
2023/01/12 02:27:45;;;;;;;8.00;5.30;;;;;;;4.48;84.92;95036.09;5005904;28;20441;-77
2023/01/12 02:30:19;;;;;;;9.13;5.40;;;;;;;4.55;84.50;95037.03;5013845;28;20667;-77
2023/01/12 02:33:14;;;;;;;7.80;4.37;;;;;;;4.62;84.27;95034.56;5013825;28;20210;-76
2023/01/12 02:35:48;;;;;;;12.70;6.75;;;;;;;4.46;84.31;95032.84;5005106;28;20454;-76
2023/01/12 02:38:38;;;;;;;8.70;5.17;;;;;;;4.32;84.47;95013.50;5013688;28;20711;-77
2023/01/12 02:41:12;;;;;;;8.75;5.50;;;;;;;4.39;84.51;95031.88;5029384;28;20502;-76
2023/01/12 02:43:39;;;;;;;7.27;4.50;;;;;;;4.20;85.20;95027.06;5032515;28;20242;-77
2023/01/12 02:46:10;;;;;;;7.50;4.57;;;;;;;4.29;85.35;95033.88;5033640;28;20190;-76
2023/01/12 02:48:42;;;;;;;6.63;4.97;;;;;;;4.32;85.20;95028.34;5032653;28;20423;-77
2023/01/12 02:51:21;;;;;;;9.45;5.50;;;;;;;4.17;85.61;95018.59;5030648;28;20427;-76
2023/01/12 02:53:51;;;;;;;7.50;4.80;;;;;;;4.29;85.25;95031.25;5033422;28;20182;-77
2023/01/12 02:56:30;;;;;;;10.23;6.40;;;;;;;4.30;85.38;95031.09;5031895;28;20566;-77
2023/01/12 02:59:00;;;;;;;8.87;5.00;;;;;;;4.36;85.03;95040.84;5019995;28;20183;-77
2023/01/12 03:01:27;;;;;;;8.40;5.47;;;;;;;4.33;85.34;95037.75;5013143;28;20235;-77
2023/01/12 03:03:57;;;;;;;8.70;4.77;;;;;;;4.34;85.46;95028.97;5025596;28;20186;-77
2023/01/12 03:06:22;;;;;;;7.03;5.17;;;;;;;4.33;85.03;95017.72;5015146;28;20176;-77
2023/01/12 03:08:49;;;;;;;8.60;5.07;;;;;;;4.30;85.21;95025.06;5032628;28;20657;-77
2023/01/12 03:11:18;;;;;;;9.53;4.60;;;;;;;4.16;85.29;95003.94;5018414;28;20667;-76
2023/01/12 03:13:48;;;;;;;6.80;4.97;;;;;;;4.30;85.88;95025.91;5012094;28;20426;-76
2023/01/12 03:16:19;;;;;;;5.53;4.03;;;;;;;4.34;85.79;95028.97;5013073;28;20181;-76
2023/01/12 03:18:54;;;;;;;7.63;4.47;;;;;;;4.34;85.60;95024.56;5012913;28;20187;-76
2023/01/12 03:21:44;;;;;;;7.60;5.22;;;;;;;4.14;85.93;95003.31;5011625;28;20981;-76
2023/01/12 03:24:13;;;;;;;8.07;4.90;;;;;;;4.28;86.06;95024.44;5004940;28;20624;-76
2023/01/12 03:26:46;;;;;;;6.43;4.33;;;;;;;4.27;85.72;95013.19;5012846;28;20180;-76
2023/01/12 03:29:19;;;;;;;8.07;4.77;;;;;;;4.35;85.72;95020.16;5005121;28;20180;-76
2023/01/12 03:31:44;;;;;;;9.20;5.10;;;;;;;4.31;85.83;95008.47;5012552;28;20219;-76
2023/01/12 03:34:10;;;;;;;9.57;5.85;;;;;;;4.05;85.94;94977.47;5011149;28;20901;-76
2023/01/12 03:36:44;;;;;;;9.37;4.97;;;;;;;4.37;85.90;95024.22;5012682;28;20251;-76
2023/01/12 03:39:32;;;;;;;6.77;4.53;;;;;;;4.35;86.27;95030.59;5012387;28;20203;-76
2023/01/12 03:42:08;;;;;;;8.17;4.77;;;;;;;4.28;86.44;95025.25;5012489;28;20187;-76
2023/01/12 03:44:54;;;;;;;13.03;5.97;;;;;;;4.16;86.37;94990.09;5011255;28;20589;-76
2023/01/12 03:47:27;;;;;;;10.65;6.57;;;;;;;4.33;86.84;95016.91;5011087;28;20457;-76
2023/01/12 03:50:06;;;;;;;8.97;4.80;;;;;;;4.37;86.84;95020.81;5012487;28;20176;-76
2023/01/12 03:52:35;;;;;;;9.55;5.68;;;;;;;4.40;86.39;95016.09;5004582;28;20473;-76
2023/01/12 03:55:02;;;;;;;8.23;6.17;;;;;;;4.36;86.35;95009.56;5009401;28;20263;-76
2023/01/12 03:57:28;;;;;;;11.03;6.60;;;;;;;4.38;86.62;95012.84;5024154;28;20188;-76
2023/01/12 03:59:56;;;;;;;9.07;5.83;;;;;;;4.39;86.21;95009.25;5025612;28;20685;-76
2023/01/12 04:02:21;;;;;;;10.70;6.33;;;;;;;4.39;86.58;95011.03;5011959;28;20268;-76
2023/01/12 04:04:47;;;;;;;13.00;6.97;;;;;;;4.23;86.98;94980.66;5012134;28;20333;-76
2023/01/12 04:07:12;;;;;;;11.07;5.83;;;;;;;4.44;86.81;95008.72;5011969;28;20638;-76
2023/01/12 04:09:38;;;;;;;9.37;6.30;;;;;;;4.50;86.63;95003.66;5010455;28;20429;-76
2023/01/12 04:12:09;;;;;;;10.93;5.13;;;;;;;4.51;86.59;95000.06;5011682;28;20199;-76
2023/01/12 04:14:39;;;;;;;7.37;5.20;;;;;;;4.52;86.21;95006.09;5025487;28;20662;-76
2023/01/12 04:17:07;;;;;;;8.60;4.90;;;;;;;4.50;86.30;95008.03;5017981;28;20200;-76
2023/01/12 04:19:33;;;;;;;10.50;4.57;;;;;;;4.51;86.17;95004.47;5011081;28;20247;-76
2023/01/12 04:24:42;;;;;;;12.90;5.60;;;;;;;4.60;85.95;95002.63;5013254;28;20682;-75
2023/01/12 04:27:07;;;;;;;11.00;6.40;;;;;;;4.52;86.10;94991.25;5009997;28;20418;-76
2023/01/12 04:29:33;;;;;;;14.63;7.60;;;;;;;4.57;86.04;95011.63;5010398;28;20418;-75
2023/01/12 04:31:58;;;;;;;14.67;6.63;;;;;;;4.61;85.72;95014.69;5030488;28;20200;-76
2023/01/12 04:34:23;;;;;;;17.13;8.03;;;;;;;4.51;85.76;95014.88;5021474;28;20965;-76
2023/01/12 04:36:49;;;;;;;11.07;6.07;;;;;;;4.51;85.95;95017.50;4999720;28;20199;-74
2023/01/12 04:39:14;;;;;;;11.68;6.07;;;;;;;4.48;85.85;95016.06;4997691;28;20918;-76
2023/01/12 04:41:40;;;;;;;9.43;5.40;;;;;;;4.42;85.71;95018.50;5004451;28;20245;-74
2023/01/12 04:44:05;;;;;;;11.57;5.17;;;;;;;4.31;86.65;95021.50;5002825;28;20438;-74
2023/01/12 04:46:30;;;;;;;9.80;5.63;;;;;;;4.32;87.07;95021.34;5009969;28;20426;-74
2023/01/12 04:48:56;;;;;;;12.23;5.93;;;;;;;4.37;86.78;95026.03;5010753;28;20446;-76
2023/01/12 04:51:21;;;;;;;12.40;6.87;;;;;;;4.21;87.33;95026.09;5010097;28;20503;-74
2023/01/12 04:53:47;;;;;;;10.83;5.43;;;;;;;4.31;87.09;95022.31;5021772;28;20188;-74
2023/01/12 04:56:13;;;;;;;11.33;5.47;;;;;;;4.30;87.31;95022.47;5030640;28;20184;-74
2023/01/12 04:58:41;;;;;;;13.00;7.30;;;;;;;4.35;87.41;95028.78;5029454;28;20847;-74
2023/01/12 05:01:08;;;;;;;12.60;5.93;;;;;;;4.40;86.94;95029.13;5030539;28;20231;-74
2023/01/12 05:03:34;;;;;;;11.27;5.60;;;;;;;4.42;87.08;95037.56;5030788;28;20183;-74
2023/01/12 05:06:01;;;;;;;13.37;6.57;;;;;;;4.46;86.79;95041.47;5025896;28;20435;-74
2023/01/12 05:11:10;;;;;;;16.80;10.32;;;;;;;4.50;86.85;95041.91;5009517;28;20890;-74
2023/01/12 05:13:35;;;;;;;12.37;6.53;;;;;;;4.53;86.89;95046.81;5010748;28;20230;-74
2023/01/12 05:16:15;;;;;;;14.90;7.67;;;;;;;4.49;87.27;95046.34;5008842;28;20513;-74
2023/01/12 05:18:41;;;;;;;13.20;6.67;;;;;;;4.48;86.87;95046.50;5010846;28;20194;-75
2023/01/12 05:21:06;;;;;;;15.53;7.57;;;;;;;4.46;87.20;95043.25;5020098;28;20254;-74
2023/01/12 05:23:32;;;;;;;18.75;9.30;;;;;;;4.47;87.45;95050.91;5009582;28;20902;-74
2023/01/12 05:26:02;;;;;;;19.37;8.90;;;;;;;4.45;87.14;95052.88;5023391;28;20214;-75
2023/01/12 05:28:28;;;;;;;14.70;6.93;;;;;;;4.36;87.38;95029.59;5009354;28;20262;-75
2023/01/12 05:30:53;;;;;;;15.37;6.57;;;;;;;4.57;86.64;95063.75;5013534;28;20271;-74
2023/01/12 05:33:19;;;;;;;13.82;7.05;;;;;;;4.61;86.56;95062.41;5014193;28;20458;-73
2023/01/12 05:35:45;;;;;;;18.17;9.03;;;;;;;4.59;86.74;95068.78;5013106;28;20422;-74
2023/01/12 05:38:10;;;;;;;24.20;11.43;;;;;;;4.61;86.51;95064.22;5013989;28;20626;-74
2023/01/12 05:40:36;;;;;;;21.77;10.33;;;;;;;4.57;86.62;95068.16;5013700;28;20187;-74
2023/01/12 05:45:45;;;;;;;23.03;10.43;;;;;;;4.62;86.70;95077.06;5013963;28;20195;-74
2023/01/12 05:48:10;;;;;;;27.03;11.77;;;;;;;4.54;86.86;95087.53;5013811;28;20192;-74
2023/01/12 05:50:36;;;;;;;19.83;8.80;;;;;;;4.42;87.06;95065.41;5013931;28;20271;-74
2023/01/12 05:53:01;;;;;;;19.20;8.00;;;;;;;4.63;86.68;95090.94;5013488;28;20453;-74
2023/01/12 05:55:27;;;;;;;12.95;6.90;;;;;;;4.65;86.57;95097.59;5013742;28;20426;-74
2023/01/12 05:57:52;;;;;;;10.07;6.13;;;;;;;4.61;86.42;95091.09;5013483;28;20422;-74
2023/01/12 06:00:18;;;;;;;8.23;4.73;;;;;;;4.53;86.48;95097.16;5014055;28;20227;-74
2023/01/12 06:02:44;;;;;;;7.83;5.43;;;;;;;4.52;86.72;95100.72;5004938;28;20429;-74
2023/01/12 06:05:09;;;;;;;8.40;5.73;;;;;;;4.41;86.92;95084.66;5013177;28;20414;-74
2023/01/12 06:07:35;;;;;;;12.90;7.33;;;;;;;4.46;87.03;95098.00;5013079;28;20446;-74
2023/01/12 06:10:01;;;;;;;11.70;6.53;;;;;;;4.55;86.75;95100.41;5014117;28;20501;-75
2023/01/12 06:15:10;;;;;;;13.10;7.10;;;;;;;4.49;86.98;95093.25;5033704;28;20191;-74
2023/01/12 06:17:36;;;;;;;12.43;6.40;;;;;;;4.54;87.13;95092.75;5033604;28;20179;-74
2023/01/12 06:20:01;;;;;;;12.03;7.00;;;;;;;4.56;87.06;95093.41;5033371;28;20420;-74
2023/01/12 06:22:27;;;;;;;11.93;7.38;;;;;;;4.53;87.56;95086.72;5032694;28;20413;-74
2023/01/12 06:24:53;;;;;;;10.30;5.90;;;;;;;4.61;87.09;95095.50;5033743;28;20657;-74
2023/01/12 06:27:19;;;;;;;10.13;5.80;;;;;;;4.61;87.11;95092.88;5028228;28;20184;-74
2023/01/12 06:29:44;;;;;;;11.70;6.80;;;;;;;4.67;86.88;95092.22;5022089;28;21199;-75
2023/01/12 06:32:09;;;;;;;11.13;6.90;;;;;;;4.68;87.09;95088.63;5032216;28;20437;-74
2023/01/12 06:34:35;;;;;;;11.43;6.23;;;;;;;4.66;87.00;95086.19;5033463;28;20180;-75
2023/01/12 06:37:01;;;;;;;14.20;7.73;;;;;;;4.69;87.13;95093.66;5033391;28;20172;-75
2023/01/12 06:39:28;;;;;;;14.03;8.23;;;;;;;4.65;87.17;95100.22;5032869;28;20405;-75
2023/01/12 06:44:38;;;;;;;21.67;11.32;;;;;;;4.68;87.70;95089.44;5032909;28;20467;-75
2023/01/12 06:47:03;;;;;;;17.48;10.75;;;;;;;4.57;87.82;95070.75;5032136;28;20420;-74
2023/01/12 06:49:29;;;;;;;16.70;8.40;;;;;;;4.63;87.46;95083.09;5033256;28;20184;-74
2023/01/12 06:51:54;;;;;;;14.40;9.60;;;;;;;4.65;87.67;95095.00;5031944;28;20551;-75
2023/01/12 06:54:20;;;;;;;11.90;7.73;;;;;;;4.50;87.84;95079.22;5032917;28;20617;-75
2023/01/12 06:56:45;;;;;;;11.40;7.13;;;;;;;4.72;87.63;95105.56;5032965;28;20199;-75
2023/01/12 06:59:11;;;;;;;9.93;6.43;;;;;;;4.76;87.45;95107.66;5024539;28;20198;-74
2023/01/12 07:01:40;;;;;;;10.13;6.83;;;;;;;4.74;87.44;95103.59;5032724;28;20223;-75
2023/01/12 07:04:05;;;;;;;16.63;8.77;;;;;;;4.78;87.39;95104.88;5032458;28;20409;-75
2023/01/12 07:06:31;;;;;;;22.00;12.77;;;;;;;4.55;87.93;95116.03;5031423;28;20777;-75
2023/01/12 07:08:56;;;;;;;36.97;16.60;;;;;;;4.53;88.45;95111.97;5033084;28;20197;-75
2023/01/12 07:11:22;;;;;;;35.42;23.50;;;;;;;4.57;88.93;95121.09;5032258;28;20425;-75
2023/01/12 07:13:47;;;;;;;36.13;25.47;;;;;;;4.62;88.92;95126.59;5032748;28;20298;-75
2023/01/12 07:16:13;;;;;;;26.27;17.77;;;;;;;4.77;88.37;95124.91;5032512;28;20527;-75
2023/01/12 07:18:38;;;;;;;15.73;10.87;;;;;;;4.83;88.15;95108.63;5032658;28;20230;-75
2023/01/12 07:21:08;;;;;;;17.40;8.83;;;;;;;4.88;87.86;95113.31;5032667;28;20179;-75
2023/01/12 07:23:34;;;;;;;18.50;10.60;;;;;;;4.92;88.28;95112.00;5030087;28;20449;-74
2023/01/12 07:26:00;;;;;;;21.20;10.57;;;;;;;4.90;87.76;95104.34;5032565;28;20708;-75
2023/01/12 07:28:25;;;;;;;18.67;10.10;;;;;;;4.87;87.51;95094.25;5032514;28;20176;-75
2023/01/12 07:30:51;;;;;;;18.00;9.53;;;;;;;4.97;87.73;95109.69;5032591;28;20176;-75
2023/01/12 07:33:16;;;;;;;18.07;10.03;;;;;;;4.88;87.99;95093.28;5032307;28;20230;-75
2023/01/12 07:35:42;;;;;;;16.23;9.73;;;;;;;5.02;87.54;95109.97;5032415;28;20176;-75
2023/01/12 07:38:08;;;;;;;16.67;9.50;;;;;;;5.12;87.34;95112.38;5031294;28;20271;-75
2023/01/12 07:40:34;;;;;;;16.53;8.70;;;;;;;4.99;87.08;95101.69;5032180;28;20226;-75
2023/01/12 07:43:07;;;;;;;14.83;7.70;;;;;;;5.06;87.00;95113.88;5032129;28;20175;-75
2023/01/12 07:45:33;;;;;;;14.07;7.80;;;;;;;4.99;86.85;95118.16;5032151;28;20171;-75
2023/01/12 07:47:59;;;;;;;13.43;7.77;;;;;;;5.01;87.77;95105.78;5032343;28;20180;-75
2023/01/12 07:50:25;;;;;;;12.47;7.07;;;;;;;5.10;87.89;95106.56;5031970;28;20176;-75
2023/01/12 07:52:52;;;;;;;11.17;7.40;;;;;;;5.21;87.14;95103.53;5031835;28;20250;-75
2023/01/12 07:55:18;;;;;;;12.17;7.13;;;;;;;5.29;86.66;95098.25;5032055;28;20229;-75
2023/01/12 07:58:05;;;;;;;11.37;5.70;;;;;;;5.15;86.09;95101.63;5031847;28;20171;-75
2023/01/12 08:00:31;;;;;;;13.47;7.60;;;;;;;4.95;86.38;95082.97;5031868;28;20223;-75
2023/01/12 08:03:05;;;;;;;13.63;8.33;;;;;;;5.02;87.11;95090.91;5031823;28;20552;-74
2023/01/12 08:05:30;;;;;;;14.33;7.10;;;;;;;5.21;87.61;95124.41;5031847;28;20570;-74
2023/01/12 08:07:56;;;;;;;16.47;8.90;;;;;;;5.27;87.02;95115.91;5031775;28;20258;-75
2023/01/12 08:10:21;;;;;;;17.43;9.17;;;;;;;5.12;86.54;95081.06;5031748;28;20175;-75
2023/01/12 08:12:49;;;;;;;12.60;7.10;;;;;;;5.36;86.24;95125.31;5031667;28;20207;-74
2023/01/12 08:15:15;;;;;;;11.17;7.57;;;;;;;5.43;86.33;95118.44;5031506;28;20178;-73
2023/01/12 08:18:04;;;;;;;21.70;12.13;;;;;;;5.46;85.85;95106.81;5031576;28;20180;-73
2023/01/12 08:20:33;;;;;;;7.27;5.23;;;;;;;5.55;85.24;95109.19;5031527;28;20651;-73
2023/01/12 08:23:06;;;;;;;7.47;4.70;;;;;;;5.63;84.79;95116.97;5031339;28;20172;-74
2023/01/12 08:25:37;;;;;;;6.27;3.57;;;;;;;5.65;84.17;95120.22;5031280;28;20199;-74
2023/01/12 08:28:07;;;;;;;5.23;3.50;;;;;;;5.57;83.97;95120.28;5030138;28;20168;-74
2023/01/12 08:30:32;;;;;;;5.63;3.77;;;;;;;5.60;84.21;95112.13;5031166;28;20203;-73
2023/01/12 08:33:00;;;;;;;8.40;5.27;;;;;;;5.61;84.64;95105.09;5031100;28;20654;-74
2023/01/12 08:35:29;;;;;;;12.40;6.47;;;;;;;5.75;84.37;95111.34;5029864;28;20601;-73
2023/01/12 08:37:55;;;;;;;8.70;6.03;;;;;;;5.80;83.35;95111.63;5029807;28;20621;-74
2023/01/12 08:40:22;;;;;;;10.80;6.30;;;;;;;5.81;83.10;95114.06;5031063;28;20176;-74
2023/01/12 08:42:48;;;;;;;7.33;4.87;;;;;;;5.86;82.35;95105.72;5030980;28;20182;-74
2023/01/12 08:45:14;;;;;;;8.47;4.33;;;;;;;5.94;82.07;95106.50;5031290;28;20178;-75
2023/01/12 08:47:43;;;;;;;9.27;6.20;;;;;;;6.04;81.95;95109.69;5031148;28;20176;-75
2023/01/12 08:50:09;;;;;;;11.77;8.67;;;;;;;6.09;81.51;95113.56;5031243;28;20258;-75
2023/01/12 08:52:34;;;;;;;11.33;8.07;;;;;;;5.96;81.58;95106.34;5031156;28;20195;-75
2023/01/12 08:55:00;;;;;;;7.90;4.87;;;;;;;5.93;81.87;95112.72;5031160;28;20172;-75
2023/01/12 08:57:25;;;;;;;7.97;4.60;;;;;;;5.89;82.23;95102.78;5031064;28;20245;-75
2023/01/12 08:59:52;;;;;;;5.37;3.57;;;;;;;5.95;81.75;95115.97;5031080;28;20725;-75
2023/01/12 09:02:17;;;;;;;10.97;5.50;;;;;;;5.92;81.70;95108.47;5030905;28;20571;-74
2023/01/12 09:04:44;;;;;;;11.53;5.87;;;;;;;6.18;81.34;95123.75;5030225;28;20175;-75
2023/01/12 09:07:10;;;;;;;12.37;6.30;;;;;;;6.30;82.93;95117.13;5031003;28;20172;-75
2023/01/12 09:09:36;;;;;;;10.33;5.67;;;;;;;6.43;80.84;95122.53;5030745;28;20547;-75
2023/01/12 09:12:02;;;;;;;9.10;4.80;;;;;;;6.43;79.79;95117.31;5030501;28;20206;-74
2023/01/12 09:14:28;;;;;;;9.73;4.57;;;;;;;6.13;79.78;95068.63;5030739;28;20672;-76
2023/01/12 09:16:55;;;;;;;10.73;5.97;;;;;;;6.30;79.91;95104.06;5030889;28;20254;-76
2023/01/12 09:19:21;;;;;;;10.37;6.03;;;;;;;6.43;79.71;95119.94;5031193;28;20179;-76
2023/01/12 09:21:47;;;;;;;11.87;5.80;;;;;;;6.40;79.79;95112.44;5031358;28;20542;-76
2023/01/12 09:24:13;;;;;;;10.03;5.30;;;;;;;6.39;79.21;95113.44;5031069;28;20172;-76
2023/01/12 09:26:40;;;;;;;14.13;7.07;;;;;;;6.34;79.72;95115.75;5031048;28;20175;-77
2023/01/12 09:29:06;;;;;;;12.63;6.50;;;;;;;6.33;79.41;95124.59;5031013;28;20249;-76
2023/01/12 09:31:33;;;;;;;13.57;6.17;;;;;;;6.39;79.42;95123.09;5030917;28;20650;-75
2023/01/12 09:33:59;;;;;;;8.53;5.17;;;;;;;6.38;78.97;95116.25;5030805;28;20202;-75
2023/01/12 09:36:29;;;;;;;10.27;6.40;;;;;;;6.22;78.77;95124.22;5030899;28;20252;-76
2023/01/12 09:38:56;;;;;;;10.20;5.73;;;;;;;6.15;79.27;95124.09;5030830;28;20230;-76
2023/01/12 09:47:28;;;;;;;9.97;4.37;;;;;;;6.17;79.12;95090.78;5030501;28;20225;-76
2023/01/12 09:50:02;;;;;;;8.13;3.97;;;;;;;6.36;79.29;95113.78;5030662;28;20233;-75
2023/01/12 09:52:36;;;;;;;7.73;3.53;;;;;;;6.41;78.71;95103.59;5030249;28;20210;-75
2023/01/12 09:55:02;;;;;;;16.97;5.77;;;;;;;6.55;77.90;95107.22;5030391;28;20183;-76
2023/01/12 09:57:45;;;;;;;8.33;4.37;;;;;;;6.58;77.78;95098.19;5030343;28;20237;-75
2023/01/12 10:00:14;;;;;;;9.47;5.60;;;;;;;6.51;77.38;95102.53;5030144;28;20306;-75
2023/01/12 10:02:46;;;;;;;9.30;3.87;;;;;;;6.44;78.18;95098.03;5023811;28;20177;-74
2023/01/12 10:05:31;;;;;;;9.93;4.00;;;;;;;6.52;77.81;95104.97;5010241;28;20187;-74
2023/01/12 10:07:56;;;;;;;10.10;5.00;;;;;;;6.58;78.15;95108.66;5010260;28;20616;-74
2023/01/12 10:10:22;;;;;;;13.37;5.03;;;;;;;6.64;77.78;95105.34;5007236;28;20654;-73
2023/01/12 10:12:57;;;;;;;7.03;3.53;;;;;;;6.65;77.14;95113.00;5007423;28;20254;-73
2023/01/12 10:15:41;;;;;;;5.97;4.23;;;;;;;6.62;76.90;95102.91;5010122;28;20186;-74
2023/01/12 10:18:30;;;;;;;6.80;4.63;;;;;;;6.51;77.16;95108.56;5013054;28;20263;-74
2023/01/12 10:20:57;;;;;;;10.07;5.07;;;;;;;6.52;78.31;95109.38;5013952;28;20176;-74
2023/01/12 10:23:26;;;;;;;7.53;4.57;;;;;;;6.37;78.53;95080.63;5010943;28;20181;-74
2023/01/12 10:26:12;;;;;;;15.73;6.53;;;;;;;6.49;78.01;95081.78;5013828;28;20263;-75
2023/01/12 10:28:43;;;;;;;10.53;5.43;;;;;;;6.53;77.42;95108.41;5014125;28;20180;-74
2023/01/12 10:31:17;;;;;;;11.60;5.63;;;;;;;6.44;78.44;95105.88;5003425;28;20181;-74
2023/01/12 10:34:05;;;;;;;9.50;4.80;;;;;;;6.32;77.87;95078.53;5005637;28;20207;-75
2023/01/12 10:36:33;;;;;;;10.67;6.20;;;;;;;6.54;78.07;95094.34;5011257;28;20240;-76
2023/01/12 10:39:02;;;;;;;6.53;4.37;;;;;;;6.37;76.74;95104.16;4994383;28;20179;-75
2023/01/12 10:41:31;;;;;;;10.50;4.60;;;;;;;6.14;80.14;95098.97;5001741;28;20175;-75
2023/01/12 10:43:59;;;;;;;18.50;13.03;;;;;;;5.97;79.25;95102.69;5018340;28;20184;-76
2023/01/12 10:46:31;;;;;;;10.30;6.30;;;;;;;6.04;79.42;95099.25;5025020;28;20184;-76
2023/01/12 10:49:23;;;;;;;5.37;3.97;;;;;;;6.06;78.69;95099.03;5014188;28;20181;-76
2023/01/12 10:52:08;;;;;;;6.00;3.13;;;;;;;5.84;78.97;95089.41;5013148;28;20212;-76
2023/01/12 10:54:36;;;;;;;6.07;3.77;;;;;;;5.91;79.21;95085.94;5013779;28;20184;-76
2023/01/12 10:57:22;;;;;;;7.07;4.03;;;;;;;5.97;79.23;95080.00;5015366;28;20712;-76
2023/01/12 10:59:54;;;;;;;8.17;4.73;;;;;;;6.10;78.42;95079.41;5006276;28;20651;-76
2023/01/12 11:02:21;;;;;;;8.63;4.97;;;;;;;6.00;78.46;95052.72;5021944;28;20266;-76
2023/01/12 11:04:51;;;;;;;7.10;4.10;;;;;;;6.24;78.21;95078.63;5014145;28;20173;-76
2023/01/12 11:07:20;;;;;;;4.63;3.07;;;;;;;6.28;78.43;95082.50;5013893;28;20181;-77
2023/01/12 11:09:47;;;;;;;7.77;4.73;;;;;;;6.36;79.21;95074.56;5032925;28;20211;-77
2023/01/12 11:12:23;;;;;;;11.00;6.03;;;;;;;6.43;78.75;95083.31;5027559;28;20299;-76
2023/01/12 11:15:11;;;;;;;10.90;5.67;;;;;;;6.52;78.35;95080.63;5023179;28;20190;-76
2023/01/12 11:18:10;;;;;;;10.23;5.70;;;;;;;6.55;78.39;95081.09;5033208;28;20180;-76
2023/01/12 11:20:50;;;;;;;11.70;6.70;;;;;;;6.64;78.01;95068.72;5016974;28;20181;-76
2023/01/12 11:23:21;;;;;;;12.50;7.47;;;;;;;6.66;77.77;95071.97;5018400;28;20241;-75
2023/01/12 11:25:49;;;;;;;16.83;9.47;;;;;;;6.76;78.48;95070.69;5033013;28;20179;-77
2023/01/12 11:28:38;;;;;;;9.30;5.27;;;;;;;6.91;77.50;95065.47;5024504;28;20203;-75
2023/01/12 11:31:13;;;;;;;10.80;6.17;;;;;;;6.92;77.11;95063.66;5032010;28;20258;-75
2023/01/12 11:33:45;;;;;;;14.23;8.10;;;;;;;6.99;77.02;95067.16;5032362;28;20207;-75
2023/01/12 11:36:19;;;;;;;10.07;6.10;;;;;;;6.96;76.49;95057.84;5032332;28;20230;-74
2023/01/12 11:38:51;;;;;;;13.47;6.67;;;;;;;6.79;76.65;95059.06;5032577;28;20192;-75
2023/01/12 11:41:39;;;;;;;7.37;5.03;;;;;;;6.48;76.49;95067.13;5032242;28;20190;-75
2023/01/12 11:44:25;;;;;;;7.03;4.77;;;;;;;6.42;77.95;95063.41;5031908;28;20686;-75
2023/01/12 11:47:04;;;;;;;7.13;4.73;;;;;;;6.55;78.31;95060.16;5024263;28;20188;-74
2023/01/12 11:50:11;;;;;;;13.73;6.50;;;;;;;6.74;78.71;95058.81;5012233;28;20176;-74
2023/01/12 11:52:39;;;;;;;12.93;7.27;;;;;;;6.83;77.77;95058.50;5004436;28;20219;-74
2023/01/12 11:55:12;;;;;;;11.97;7.50;;;;;;;6.73;77.37;95041.47;5019774;28;20187;-74
2023/01/12 11:58:03;;;;;;;12.00;6.37;;;;;;;6.87;77.83;95047.69;5031582;28;20186;-74
2023/01/12 12:01:00;;;;;;;10.20;6.10;;;;;;;6.99;77.58;95052.28;5031739;28;20235;-74
2023/01/12 12:03:54;;;;;;;12.17;6.60;;;;;;;7.13;77.38;95043.56;5031577;28;20187;-74
2023/01/12 12:06:36;;;;;;;7.00;4.90;;;;;;;7.19;75.74;95052.47;5031687;28;20188;-75
2023/01/12 12:09:20;;;;;;;8.27;5.20;;;;;;;7.23;75.60;95047.69;5031728;28;20175;-74
2023/01/12 12:11:55;;;;;;;12.93;5.83;;;;;;;7.20;76.03;95052.28;5031384;28;20254;-74
2023/01/12 12:14:25;;;;;;;8.53;5.10;;;;;;;7.12;76.02;95052.41;5023944;28;20259;-75
2023/01/12 12:17:39;;;;;;;6.57;3.93;;;;;;;7.10;76.54;95049.16;4995315;28;20268;-74
2023/01/12 12:20:21;;;;;;;8.87;6.43;;;;;;;7.04;76.95;95044.66;5011915;28;20184;-75
2023/01/12 12:22:53;;;;;;;8.40;5.80;;;;;;;7.10;76.97;95048.34;5030202;28;20171;-75
2023/01/12 12:26:07;;;;;;;10.03;6.70;;;;;;;7.03;77.08;95052.69;5030912;28;20587;-74